Time;durP1;ratioP1;P1;durP2;ratioP2;P2;SDS_P1;SDS_P2;PMS_P1;PMS_P2;Temp;Humidity;BMP_temperature;BMP_pressure;BME280_temperature;BME280_humidity;BME280_pressure;Samples;Min_cycle;Max_cycle;Signal;HPM_P1;HPM_P2
2023/01/23 00:01:24;;;;;;;13.23;6.70;;;2.60;99.90;;;;;;5109445;28;20078;-69
2023/01/23 00:03:50;;;;;;;18.67;6.88;;;2.70;99.90;;;;;;5109103;28;20428;-68
2023/01/23 00:06:16;;;;;;;12.75;6.60;;;2.60;99.90;;;;;;5092037;28;20048;-67
2023/01/23 00:08:44;;;;;;;11.55;6.45;;;2.80;99.90;;;;;;5093030;28;20050;-68
2023/01/23 00:11:13;;;;;;;10.82;6.53;;;2.60;99.90;;;;;;5075396;28;20126;-67
2023/01/23 00:13:39;;;;;;;11.05;6.47;;;2.70;99.90;;;;;;5082277;28;20040;-68
2023/01/23 00:16:11;;;;;;;12.68;6.50;;;2.60;99.90;;;;;;5086583;28;20054;-68
2023/01/23 00:18:37;;;;;;;13.85;6.68;;;2.60;99.90;;;;;;5110919;28;20040;-68
2023/01/23 00:21:08;;;;;;;12.18;6.68;;;2.60;99.90;;;;;;5092099;28;20051;-68
2023/01/23 00:23:35;;;;;;;13.18;6.55;;;2.60;99.90;;;;;;5093246;28;20404;-69
2023/01/23 00:26:06;;;;;;;12.15;6.20;;;2.60;99.90;;;;;;5080296;28;20036;-67
2023/01/23 00:28:32;;;;;;;10.45;5.97;;;2.60;99.90;;;;;;5096532;28;20078;-70
2023/01/23 00:31:06;;;;;;;11.07;6.32;;;2.60;99.90;;;;;;5064530;28;20046;-67
2023/01/23 00:33:32;;;;;;;13.82;6.65;;;2.60;99.90;;;;;;5106199;28;20046;-68
2023/01/23 00:35:58;;;;;;;13.80;6.90;;;2.60;99.90;;;;;;5098832;28;20493;-70
2023/01/23 00:38:23;;;;;;;14.80;6.45;;;2.60;99.90;;;;;;5102802;28;20055;-68
2023/01/23 00:40:49;;;;;;;12.45;6.60;;;2.70;99.90;;;;;;5114036;28;20485;-68
2023/01/23 00:43:15;;;;;;;14.30;6.10;;;2.60;99.90;;;;;;5095398;28;20050;-69
2023/01/23 00:45:41;;;;;;;11.02;5.60;;;2.60;99.90;;;;;;5110431;28;20044;-67
2023/01/23 00:48:06;;;;;;;14.93;7.10;;;2.60;99.90;;;;;;5113420;28;20050;-68
2023/01/23 00:50:32;;;;;;;11.02;6.05;;;2.60;99.90;;;;;;5079205;28;20055;-68
2023/01/23 00:52:58;;;;;;;14.50;6.53;;;2.60;99.90;;;;;;5099876;28;20521;-70
2023/01/23 00:55:23;;;;;;;14.07;6.55;;;2.60;99.90;;;;;;5091798;28;20427;-67
2023/01/23 00:57:49;;;;;;;13.82;6.55;;;2.60;99.90;;;;;;5081520;28;20147;-67
2023/01/23 01:00:15;;;;;;;11.48;6.82;;;2.70;99.90;;;;;;5092251;28;20044;-68
2023/01/23 01:02:41;;;;;;;10.23;6.22;;;2.50;99.90;;;;;;5106624;28;20058;-67
2023/01/23 01:05:07;;;;;;;14.05;6.93;;;2.60;99.90;;;;;;5073814;28;20039;-67
2023/01/23 01:07:33;;;;;;;16.55;6.65;;;2.60;99.90;;;;;;5094344;28;20388;-67
2023/01/23 01:09:58;;;;;;;14.48;6.38;;;2.90;99.90;;;;;;5092057;28;20047;-67
2023/01/23 01:12:24;;;;;;;14.63;7.30;;;2.60;99.90;;;;;;5091837;28;20484;-67
2023/01/23 01:14:50;;;;;;;8.93;5.70;;;2.80;99.90;;;;;;5108027;28;20112;-69
2023/01/23 01:17:16;;;;;;;12.15;5.78;;;2.60;99.90;;;;;;5099882;28;20040;-68
2023/01/23 01:19:41;;;;;;;11.68;5.72;;;2.60;99.90;;;;;;5097809;28;20094;-67
2023/01/23 01:22:07;;;;;;;14.77;6.80;;;2.60;99.90;;;;;;5093337;28;20050;-66
2023/01/23 01:24:33;;;;;;;10.30;6.13;;;2.60;99.90;;;;;;5075190;28;20052;-67
2023/01/23 01:26:59;;;;;;;11.27;5.60;;;2.60;99.90;;;;;;5086040;28;20043;-67
2023/01/23 01:29:24;;;;;;;10.35;5.60;;;2.80;99.90;;;;;;5098262;28;20041;-68
2023/01/23 01:31:50;;;;;;;11.18;5.38;;;2.60;99.90;;;;;;5074813;28;20044;-67
2023/01/23 01:34:16;;;;;;;14.13;6.22;;;2.60;99.90;;;;;;5090833;28;20043;-67
2023/01/23 01:36:41;;;;;;;12.07;5.85;;;2.60;99.90;;;;;;5109364;28;20039;-68
2023/01/23 01:39:07;;;;;;;15.88;5.93;;;2.80;99.90;;;;;;5071414;28;20543;-68
2023/01/23 01:41:33;;;;;;;12.98;5.88;;;2.60;99.90;;;;;;5067004;28;20363;-68
2023/01/23 01:43:59;;;;;;;9.35;5.70;;;2.60;99.90;;;;;;5071915;28;20486;-68
2023/01/23 01:46:33;;;;;;;14.57;6.00;;;2.60;99.90;;;;;;5070772;28;20044;-68
2023/01/23 01:49:16;;;;;;;11.63;5.97;;;2.70;99.90;;;;;;5069292;28;20442;-68
2023/01/23 01:51:54;;;;;;;12.48;6.25;;;2.60;99.90;;;;;;5071118;28;20048;-68
2023/01/23 01:54:52;;;;;;;13.85;6.03;;;2.60;99.90;;;;;;5065644;28;20117;-66
2023/01/23 01:57:22;;;;;;;12.05;6.15;;;2.60;99.90;;;;;;5031947;28;20061;-67
2023/01/23 02:00:09;;;;;;;10.13;5.85;;;2.60;99.90;;;;;;5067868;28;20379;-68
2023/01/23 02:03:00;;;;;;;14.07;6.30;;;2.60;99.90;;;;;;5068334;28;20052;-68
2023/01/23 02:05:34;;;;;;;12.90;6.07;;;2.60;99.90;;;;;;5072300;28;20044;-68
2023/01/23 02:08:19;;;;;;;9.63;5.50;;;2.60;99.90;;;;;;5069950;28;20097;-68
2023/01/23 02:10:45;;;;;;;10.75;6.43;;;2.60;99.90;;;;;;5072326;28;20457;-68
2023/01/23 02:13:34;;;;;;;11.20;6.47;;;2.50;99.90;;;;;;5071100;28;20054;-70
2023/01/23 02:16:09;;;;;;;10.70;6.13;;;2.50;99.90;;;;;;5071726;28;20493;-68
2023/01/23 02:18:41;;;;;;;10.70;6.45;;;2.60;99.90;;;;;;5068830;28;20036;-67
2023/01/23 02:21:08;;;;;;;10.30;6.45;;;2.80;99.90;;;;;;5069316;28;20044;-68
2023/01/23 02:23:55;;;;;;;14.50;6.85;;;2.50;99.90;;;;;;5070072;28;20147;-68
2023/01/23 02:26:27;;;;;;;10.63;6.35;;;2.50;99.90;;;;;;5069453;28;20055;-67
2023/01/23 02:28:54;;;;;;;14.98;6.70;;;2.50;99.90;;;;;;5071167;28;20541;-68
2023/01/23 02:31:21;;;;;;;10.05;6.68;;;2.50;99.90;;;;;;5052665;28;20094;-68
2023/01/23 02:33:50;;;;;;;11.70;6.40;;;2.50;99.90;;;;;;5070477;28;20044;-68
2023/01/23 02:36:18;;;;;;;13.05;6.85;;;2.70;99.90;;;;;;5066805;28;20106;-66
2023/01/23 02:39:08;;;;;;;13.07;6.50;;;2.50;99.90;;;;;;5090375;28;20134;-67
2023/01/23 02:41:38;;;;;;;10.50;6.45;;;2.50;99.90;;;;;;5058607;28;20851;-69
2023/01/23 02:44:33;;;;;;;12.30;7.05;;;2.50;99.90;;;;;;5101508;28;20134;-68
2023/01/23 02:47:03;;;;;;;12.32;6.45;;;2.50;99.90;;;;;;5082434;28;20051;-67
2023/01/23 02:49:29;;;;;;;12.48;7.05;;;2.50;99.90;;;;;;5111310;28;20059;-68
2023/01/23 02:51:55;;;;;;;13.30;6.75;;;2.50;99.90;;;;;;5101828;28;20440;-69
2023/01/23 02:54:21;;;;;;;11.60;6.50;;;2.50;99.90;;;;;;5091286;28;20122;-67
2023/01/23 02:56:47;;;;;;;12.13;7.07;;;2.50;99.90;;;;;;5082447;28;20541;-66
2023/01/23 03:01:58;;;;;;;10.73;6.28;;;2.50;99.90;;;;;;5109804;28;20100;-68
2023/01/23 03:04:24;;;;;;;10.10;6.22;;;2.50;99.90;;;;;;5092867;28;20507;-68
2023/01/23 03:06:49;;;;;;;13.88;6.50;;;2.50;99.90;;;;;;5107482;28;20122;-69
2023/01/23 03:09:16;;;;;;;13.57;6.47;;;3.10;99.90;;;;;;5111216;28;20123;-67
2023/01/23 03:11:45;;;;;;;12.57;6.65;;;2.50;99.90;;;;;;5090572;28;20064;-68
2023/01/23 03:14:15;;;;;;;11.15;5.78;;;2.50;99.90;;;;;;5107351;28;20048;-66
2023/01/23 03:16:41;;;;;;;13.43;6.40;;;2.50;99.90;;;;;;5087008;28;20119;-67
2023/01/23 03:19:08;;;;;;;10.98;6.43;;;2.60;99.90;;;;;;5056263;28;20557;-68
2023/01/23 03:21:36;;;;;;;9.68;6.22;;;2.50;99.90;;;;;;5076303;28;20109;-69
2023/01/23 03:24:10;;;;;;;10.57;6.53;;;2.50;99.90;;;;;;5089110;28;20477;-68
2023/01/23 03:26:44;;;;;;;13.50;6.47;;;2.50;99.90;;;;;;5078616;28;20441;-67
2023/01/23 03:32:03;;;;;;;9.65;6.03;;;2.50;99.90;;;;;;5076207;28;20056;-68
2023/01/23 03:34:30;;;;;;;16.52;6.88;;;2.50;99.90;;;;;;5041248;28;20051;-68
2023/01/23 03:36:56;;;;;;;9.52;6.13;;;2.60;99.90;;;;;;5107483;28;20036;-68
2023/01/23 03:42:05;;;;;;;12.80;6.43;;;2.60;99.90;;;;;;5078778;28;20131;-68
2023/01/23 03:44:31;;;;;;;9.20;5.85;;;2.50;99.90;;;;;;5084792;28;20123;-68
2023/01/23 03:46:57;;;;;;;13.50;6.40;;;2.70;99.90;;;;;;5076308;28;20044;-69
2023/01/23 03:49:23;;;;;;;11.40;5.70;;;2.50;99.90;;;;;;5083409;28;20047;-71
2023/01/23 03:51:48;;;;;;;9.82;6.10;;;2.50;99.90;;;;;;5078369;28;20044;-67
2023/01/23 03:54:14;;;;;;;13.55;6.40;;;2.60;99.90;;;;;;5083332;28;20053;-67
2023/01/23 03:56:41;;;;;;;8.80;6.00;;;2.60;99.90;;;;;;5074116;28;20036;-69
2023/01/23 03:59:07;;;;;;;12.77;6.47;;;2.60;99.90;;;;;;5091435;28;20052;-68
2023/01/23 04:01:33;;;;;;;13.75;6.28;;;2.50;99.90;;;;;;5094018;28;20063;-67
2023/01/23 04:03:59;;;;;;;10.75;6.32;;;2.70;99.90;;;;;;5094949;28;20062;-67
2023/01/23 04:06:25;;;;;;;13.13;6.75;;;2.50;99.90;;;;;;5079531;28;20044;-71
2023/01/23 04:08:51;;;;;;;14.82;6.45;;;2.50;99.90;;;;;;5092488;28;20059;-67
2023/01/23 04:11:16;;;;;;;12.65;6.63;;;2.50;99.90;;;;;;5090075;28;20478;-67
2023/01/23 04:13:42;;;;;;;10.48;6.32;;;2.50;99.90;;;;;;5085142;28;20036;-68
2023/01/23 04:16:08;;;;;;;11.80;6.35;;;2.50;99.90;;;;;;5083433;28;20120;-68
2023/01/23 04:18:33;;;;;;;10.88;6.63;;;2.50;99.90;;;;;;5083973;28;20043;-67
2023/01/23 04:20:59;;;;;;;10.68;6.90;;;2.50;99.90;;;;;;5091421;28;20055;-68
2023/01/23 04:23:25;;;;;;;9.48;6.10;;;2.50;99.90;;;;;;5094440;28;20044;-68
2023/01/23 04:25:51;;;;;;;11.18;6.68;;;2.50;99.90;;;;;;5091750;28;20094;-68
2023/01/23 04:28:18;;;;;;;10.13;6.63;;;2.50;99.90;;;;;;5062448;28;20044;-68
2023/01/23 04:30:44;;;;;;;11.20;6.78;;;2.50;99.90;;;;;;5091788;28;20050;-67
2023/01/23 04:33:10;;;;;;;11.60;7.13;;;2.50;99.90;;;;;;5089548;28;20045;-68
2023/01/23 04:35:36;;;;;;;13.35;6.93;;;2.50;99.90;;;;;;5080406;28;20059;-69
2023/01/23 04:38:01;;;;;;;9.43;6.70;;;2.50;99.90;;;;;;5071527;28;20065;-68
2023/01/23 04:40:27;;;;;;;11.23;7.55;;;2.40;99.90;;;;;;5068828;28;20049;-68
2023/01/23 04:42:53;;;;;;;11.27;7.20;;;2.50;99.90;;;;;;5066190;28;20076;-68
2023/01/23 04:45:18;;;;;;;12.18;7.20;;;2.50;99.90;;;;;;5065442;28;20040;-68
2023/01/23 04:47:44;;;;;;;12.30;7.15;;;2.50;99.90;;;;;;5054216;28;20071;-68
2023/01/23 04:50:10;;;;;;;14.50;7.70;;;2.50;99.90;;;;;;5070596;28;20076;-68
2023/01/23 04:52:36;;;;;;;13.07;7.90;;;2.40;99.90;;;;;;5072781;28;20045;-68
2023/01/23 04:55:02;;;;;;;11.63;7.50;;;2.40;99.90;;;;;;5072695;28;20041;-68
2023/01/23 04:57:28;;;;;;;15.20;7.38;;;2.50;99.90;;;;;;5054732;28;20371;-68
2023/01/23 04:59:53;;;;;;;8.30;6.75;;;2.50;99.90;;;;;;5058872;28;20045;-68
2023/01/23 05:02:19;;;;;;;11.82;7.50;;;2.50;99.90;;;;;;5066429;28;20051;-68
2023/01/23 05:04:45;;;;;;;13.70;7.82;;;2.50;99.90;;;;;;5066889;28;20129;-67
2023/01/23 05:07:11;;;;;;;14.23;7.75;;;2.50;99.90;;;;;;5057619;28;20076;-68
2023/01/23 05:09:40;;;;;;;13.07;8.05;;;2.50;99.90;;;;;;5067297;28;20138;-68
2023/01/23 05:12:06;;;;;;;15.70;8.77;;;2.50;99.90;;;;;;5070434;28;20067;-66
2023/01/23 05:14:32;;;;;;;15.25;8.73;;;2.50;99.90;;;;;;5070763;28;20404;-68
2023/01/23 05:16:57;;;;;;;13.25;8.32;;;2.50;99.90;;;;;;5068392;28;20052;-68
2023/01/23 05:19:23;;;;;;;12.25;8.15;;;2.50;99.90;;;;;;5066147;28;20087;-67
2023/01/23 05:21:49;;;;;;;13.82;8.10;;;2.50;99.90;;;;;;5060963;28;20063;-68
2023/01/23 05:24:15;;;;;;;16.55;8.57;;;2.50;99.90;;;;;;5060288;28;20056;-68
2023/01/23 05:26:41;;;;;;;13.27;7.65;;;2.50;99.90;;;;;;5068017;28;20450;-67
2023/01/23 05:29:07;;;;;;;14.57;8.35;;;2.50;99.90;;;;;;5052985;28;20052;-67
2023/01/23 05:31:33;;;;;;;15.65;8.35;;;2.50;99.90;;;;;;5060652;28;20037;-67
2023/01/23 05:33:59;;;;;;;13.18;7.60;;;2.50;99.90;;;;;;5062435;28;20502;-67
2023/01/23 05:36:24;;;;;;;16.33;8.43;;;2.60;99.90;;;;;;5058515;28;20449;-68
2023/01/23 05:38:50;;;;;;;14.15;7.47;;;2.50;99.90;;;;;;5081756;28;20131;-68
2023/01/23 05:41:16;;;;;;;13.57;8.23;;;2.50;99.90;;;;;;5073209;28;20056;-67
2023/01/23 05:43:42;;;;;;;13.05;7.97;;;2.50;99.90;;;;;;5090145;28;20089;-67
2023/01/23 05:46:08;;;;;;;14.05;7.93;;;2.50;99.90;;;;;;5091458;28;20048;-67
2023/01/23 05:48:34;;;;;;;9.75;7.45;;;2.50;99.90;;;;;;5091373;28;20073;-68
2023/01/23 05:51:02;;;;;;;17.15;7.97;;;2.50;99.90;;;;;;5090162;28;20095;-68
2023/01/23 05:53:28;;;;;;;12.25;7.22;;;2.50;99.90;;;;;;5087908;28;20061;-68
2023/01/23 05:55:54;;;;;;;12.00;7.90;;;2.50;99.90;;;;;;5086998;28;20060;-69
2023/01/23 05:58:19;;;;;;;16.30;8.00;;;2.50;99.90;;;;;;5067657;28;20406;-68
2023/01/23 06:00:45;;;;;;;11.63;7.78;;;3.10;99.90;;;;;;5084482;28;20120;-68
2023/01/23 06:03:11;;;;;;;12.70;8.85;;;2.50;99.90;;;;;;5090124;28;20189;-68
2023/01/23 06:05:36;;;;;;;13.25;8.13;;;2.50;99.90;;;;;;5084163;28;20036;-68
2023/01/23 06:08:02;;;;;;;14.40;8.23;;;2.50;99.90;;;;;;5091633;28;20113;-68
2023/01/23 06:10:28;;;;;;;12.77;8.05;;;2.50;99.90;;;;;;5089232;28;20051;-68
2023/01/23 06:12:53;;;;;;;12.27;8.25;;;2.60;99.90;;;;;;5086861;28;20048;-67
2023/01/23 06:15:19;;;;;;;14.20;8.35;;;2.50;99.90;;;;;;5080370;28;20454;-67
2023/01/23 06:17:45;;;;;;;11.75;7.85;;;2.50;99.90;;;;;;5076078;28;20040;-68
2023/01/23 06:20:11;;;;;;;12.35;8.30;;;2.50;99.90;;;;;;5082574;28;20065;-67
2023/01/23 06:22:37;;;;;;;14.38;9.13;;;2.50;99.90;;;;;;5071196;28;20478;-67
2023/01/23 06:25:03;;;;;;;14.05;8.75;;;2.60;99.90;;;;;;5090965;28;20046;-66
2023/01/23 06:27:29;;;;;;;14.65;8.20;;;2.50;99.90;;;;;;5089755;28;20036;-67
2023/01/23 06:29:54;;;;;;;13.85;8.60;;;2.60;99.90;;;;;;5082331;28;20070;-67
2023/01/23 06:32:22;;;;;;;13.38;8.57;;;2.50;99.90;;;;;;5086007;28;20106;-67
2023/01/23 06:34:48;;;;;;;15.48;9.05;;;2.60;99.90;;;;;;5091421;28;20052;-67
2023/01/23 06:37:14;;;;;;;15.90;8.20;;;2.50;99.90;;;;;;5080260;28;20055;-67
2023/01/23 06:39:40;;;;;;;15.07;8.65;;;2.50;99.90;;;;;;5088726;28;20048;-68
2023/01/23 06:42:08;;;;;;;14.90;9.20;;;2.50;99.90;;;;;;5086327;28;20082;-68
2023/01/23 06:44:36;;;;;;;14.23;8.52;;;2.80;99.90;;;;;;5103615;28;20394;-68
2023/01/23 06:47:03;;;;;;;13.65;8.65;;;2.80;99.90;;;;;;5108956;28;20044;-68
2023/01/23 06:49:29;;;;;;;15.77;9.07;;;2.50;99.90;;;;;;5064785;28;20482;-67
2023/01/23 06:51:55;;;;;;;14.23;9.23;;;2.50;99.90;;;;;;5105303;28;20085;-68
2023/01/23 06:54:20;;;;;;;13.50;9.45;;;2.50;99.90;;;;;;5107252;28;20072;-68
2023/01/23 06:56:48;;;;;;;14.68;9.57;;;3.00;99.90;;;;;;5113292;27;20046;-70
2023/01/23 06:59:14;;;;;;;16.60;9.32;;;2.50;99.90;;;;;;5090310;28;20055;-68
2023/01/23 07:01:41;;;;;;;14.40;9.68;;;2.50;99.90;;;;;;5072813;28;21793;-68
2023/01/23 07:04:10;;;;;;;16.45;10.10;;;2.80;99.90;;;;;;5061549;28;20438;-67
2023/01/23 07:06:36;;;;;;;12.90;10.00;;;2.50;99.90;;;;;;5081952;28;20071;-67
2023/01/23 07:09:01;;;;;;;17.70;10.27;;;2.50;99.90;;;;;;5103524;28;20105;-67
2023/01/23 07:11:27;;;;;;;16.42;10.55;;;2.50;99.90;;;;;;5088688;28;20055;-67
2023/01/23 07:13:53;;;;;;;15.85;10.55;;;2.50;99.90;;;;;;5093717;28;20082;-68
2023/01/23 07:16:19;;;;;;;15.30;10.18;;;2.50;99.90;;;;;;5077856;28;20064;-72
2023/01/23 07:18:45;;;;;;;17.42;11.35;;;2.50;99.90;;;;;;5066916;28;20082;-67
2023/01/23 07:21:10;;;;;;;15.88;10.80;;;2.50;99.90;;;;;;5068065;28;20066;-67
2023/01/23 07:23:36;;;;;;;17.58;11.73;;;2.50;99.90;;;;;;5108525;28;20374;-66
2023/01/23 07:26:08;;;;;;;17.92;11.07;;;2.50;99.90;;;;;;5090610;28;20046;-68
2023/01/23 07:28:35;;;;;;;15.93;11.63;;;2.50;99.90;;;;;;5111218;28;20054;-67
2023/01/23 07:31:01;;;;;;;17.88;10.55;;;2.50;99.90;;;;;;5064359;28;20052;-67
2023/01/23 07:33:26;;;;;;;19.05;11.10;;;2.50;99.90;;;;;;5103357;28;20039;-67
2023/01/23 07:35:53;;;;;;;15.15;10.73;;;2.50;99.90;;;;;;5091573;28;20054;-70
2023/01/23 07:38:19;;;;;;;16.92;11.13;;;2.50;99.90;;;;;;5110004;28;20151;-68
2023/01/23 07:40:45;;;;;;;16.65;11.15;;;2.40;99.90;;;;;;5107439;28;20053;-67
2023/01/23 07:43:11;;;;;;;19.02;11.23;;;2.40;99.90;;;;;;5110344;28;20051;-68
2023/01/23 07:45:37;;;;;;;17.83;10.73;;;2.50;99.90;;;;;;5105333;28;20043;-67
2023/01/23 07:48:03;;;;;;;17.02;10.75;;;2.40;99.90;;;;;;5107610;28;20047;-66
2023/01/23 07:50:29;;;;;;;17.60;11.18;;;2.50;99.90;;;;;;5101854;28;20054;-65
2023/01/23 07:52:55;;;;;;;16.20;10.20;;;2.50;99.90;;;;;;5103853;28;20134;-71
2023/01/23 07:55:20;;;;;;;20.27;10.95;;;2.40;99.90;;;;;;5109664;28;20055;-66
2023/01/23 07:57:46;;;;;;;17.92;11.55;;;2.50;99.90;;;;;;5110732;28;20500;-66
2023/01/23 08:00:12;;;;;;;16.92;11.00;;;2.50;99.90;;;;;;5074965;28;20453;-66
2023/01/23 08:02:38;;;;;;;16.13;11.07;;;2.50;99.90;;;;;;5104279;28;20405;-66
2023/01/23 08:05:05;;;;;;;15.73;11.20;;;2.50;99.90;;;;;;5087987;28;20121;-65
2023/01/23 08:07:30;;;;;;;14.45;11.18;;;2.50;99.90;;;;;;5110708;28;20324;-66
2023/01/23 08:09:56;;;;;;;13.95;10.90;;;2.50;99.90;;;;;;5110322;28;20489;-71
2023/01/23 08:12:22;;;;;;;15.98;10.95;;;2.50;99.90;;;;;;5079652;28;20048;-67
2023/01/23 08:14:47;;;;;;;16.00;10.50;;;2.50;99.90;;;;;;5099011;28;20051;-67
2023/01/23 08:17:13;;;;;;;14.60;11.00;;;2.50;99.90;;;;;;5103108;28;20050;-66
2023/01/23 08:19:39;;;;;;;14.82;10.00;;;3.50;99.90;;;;;;5093179;28;20048;-67
2023/01/23 08:22:05;;;;;;;16.35;10.93;;;2.50;99.90;;;;;;5073740;28;20044;-68
2023/01/23 08:24:31;;;;;;;16.02;10.00;;;2.60;99.90;;;;;;5082396;28;20087;-67
2023/01/23 08:26:57;;;;;;;13.10;9.63;;;2.50;99.90;;;;;;5108479;28;20052;-68
2023/01/23 08:29:23;;;;;;;17.13;10.25;;;2.50;99.90;;;;;;5098251;28;20122;-67
2023/01/23 08:31:50;;;;;;;13.00;9.68;;;2.50;99.90;;;;;;5108190;28;20122;-67
2023/01/23 08:34:16;;;;;;;15.77;10.25;;;2.90;99.90;;;;;;5105853;28;20051;-67
2023/01/23 08:36:42;;;;;;;15.38;9.43;;;2.80;99.90;;;;;;5106552;28;20047;-66
2023/01/23 08:39:07;;;;;;;12.38;9.52;;;2.70;99.90;;;;;;5069956;28;20055;-66
2023/01/23 08:41:33;;;;;;;13.38;9.55;;;2.60;99.90;;;;;;5101386;28;20104;-68
2023/01/23 08:44:00;;;;;;;14.13;8.90;;;2.60;99.90;;;;;;5065991;28;20100;-65
2023/01/23 08:46:28;;;;;;;12.07;8.77;;;2.70;99.90;;;;;;5076303;28;20039;-66
2023/01/23 08:48:54;;;;;;;10.60;7.93;;;2.70;99.90;;;;;;5113919;28;20047;-67
2023/01/23 08:51:20;;;;;;;12.73;8.20;;;2.70;99.90;;;;;;5112737;28;20047;-66
2023/01/23 08:53:46;;;;;;;12.98;8.30;;;2.70;99.90;;;;;;5074897;28;20055;-67
2023/01/23 08:56:16;;;;;;;15.65;7.93;;;2.70;99.90;;;;;;5093262;28;20044;-66
2023/01/23 08:58:42;;;;;;;11.48;7.63;;;2.80;99.90;;;;;;5110422;28;20039;-67
2023/01/23 09:01:16;;;;;;;11.18;7.25;;;2.90;99.90;;;;;;5070183;28;20055;-68
2023/01/23 09:03:41;;;;;;;9.82;6.57;;;2.80;99.90;;;;;;5099234;28;20071;-66
2023/01/23 09:06:09;;;;;;;10.20;7.18;;;2.80;99.90;;;;;;5071020;28;20456;-68
2023/01/23 09:08:35;;;;;;;12.30;7.28;;;2.80;99.90;;;;;;5113201;28;20052;-65
2023/01/23 09:11:02;;;;;;;9.30;6.55;;;2.80;99.90;;;;;;5105829;28;20048;-68
2023/01/23 09:13:28;;;;;;;9.32;6.25;;;2.80;99.90;;;;;;5093636;28;20120;-65
2023/01/23 09:15:54;;;;;;;10.65;7.38;;;2.80;99.90;;;;;;5102626;28;20472;-65
2023/01/23 09:18:21;;;;;;;7.93;5.65;;;2.80;99.90;;;;;;5092539;28;20039;-66
2023/01/23 09:20:48;;;;;;;9.30;6.30;;;2.80;99.90;;;;;;5103511;28;20051;-63
2023/01/23 09:23:14;;;;;;;8.40;6.10;;;2.90;99.90;;;;;;5081530;28;20140;-65
2023/01/23 09:25:39;;;;;;;10.55;6.13;;;2.80;99.90;;;;;;5102374;28;20101;-65
2023/01/23 09:28:06;;;;;;;8.02;5.80;;;2.80;99.90;;;;;;5102312;28;20040;-64
2023/01/23 09:30:32;;;;;;;8.00;5.60;;;2.80;99.90;;;;;;5108337;28;20039;-65
2023/01/23 09:32:57;;;;;;;9.27;6.22;;;2.90;99.90;;;;;;5082437;28;20047;-64
2023/01/23 09:35:23;;;;;;;6.70;5.18;;;2.90;99.90;;;;;;5083898;28;20141;-64
2023/01/23 09:37:58;;;;;;;7.22;5.28;;;2.90;99.90;;;;;;5107844;28;20059;-64
2023/01/23 09:40:28;;;;;;;7.15;5.63;;;2.90;99.90;;;;;;5099808;28;20051;-65
2023/01/23 09:42:57;;;;;;;9.77;5.85;;;2.90;99.90;;;;;;5096909;28;20413;-64
2023/01/23 09:45:26;;;;;;;7.35;5.65;;;3.10;99.90;;;;;;5105407;28;20040;-63
2023/01/23 09:48:21;;;;;;;7.40;5.75;;;3.00;99.90;;;;;;5084875;28;20051;-68
2023/01/23 09:50:54;;;;;;;11.13;6.47;;;3.00;99.90;;;;;;5073426;28;20082;-64
2023/01/23 09:53:24;;;;;;;8.35;6.10;;;3.00;99.90;;;;;;5079838;28;20052;-65
2023/01/23 09:55:56;;;;;;;9.75;6.15;;;3.00;99.90;;;;;;5100455;28;20081;-66
2023/01/23 09:58:39;;;;;;;8.02;6.15;;;3.00;99.90;;;;;;5087038;28;20043;-65
2023/01/23 10:01:08;;;;;;;11.63;6.60;;;3.10;99.90;;;;;;5086030;28;20105;-64
2023/01/23 10:03:34;;;;;;;9.30;6.07;;;3.30;99.90;;;;;;5108914;28;20036;-63
2023/01/23 10:06:26;;;;;;;10.68;7.68;;;3.10;99.90;;;;;;5093885;28;20378;-64
2023/01/23 10:09:29;;;;;;;13.18;9.02;;;3.10;99.90;;;;;;5107638;28;20060;-65
2023/01/23 10:12:12;;;;;;;14.35;10.50;;;3.10;99.90;;;;;;5087012;28;20051;-64
2023/01/23 10:14:56;;;;;;;16.33;12.10;;;3.10;99.90;;;;;;5097579;28;20043;-65
2023/01/23 10:17:49;;;;;;;14.77;10.23;;;3.10;99.90;;;;;;5111695;28;20055;-65
2023/01/23 10:20:29;;;;;;;9.20;7.97;;;3.20;99.90;;;;;;5108922;28;20055;-72
2023/01/23 10:23:22;;;;;;;9.88;7.78;;;3.20;99.90;;;;;;5084144;28;20051;-64
2023/01/23 10:25:49;;;;;;;9.48;7.20;;;3.20;99.90;;;;;;5088245;28;20047;-64
2023/01/23 10:28:37;;;;;;;11.90;7.65;;;3.20;99.90;;;;;;5099254;28;20079;-65
2023/01/23 10:31:18;;;;;;;15.02;7.90;;;3.20;99.90;;;;;;5100511;28;20458;-65
2023/01/23 10:34:08;;;;;;;13.15;9.13;;;3.20;99.90;;;;;;5100093;28;20051;-65
2023/01/23 10:36:52;;;;;;;12.15;9.23;;;3.20;99.90;;;;;;5109456;28;20043;-64
2023/01/23 10:39:30;;;;;;;15.68;8.93;;;3.20;99.90;;;;;;5103550;28;20063;-71
2023/01/23 10:41:56;;;;;;;11.93;9.00;;;3.20;99.90;;;;;;5102380;28;20087;-64
2023/01/23 10:44:22;;;;;;;14.98;9.07;;;3.60;99.90;;;;;;5107817;28;20087;-68
2023/01/23 10:46:51;;;;;;;14.70;9.77;;;3.30;99.90;;;;;;5107739;28;20043;-64
2023/01/23 10:49:34;;;;;;;13.70;9.07;;;3.30;99.90;;;;;;5106227;28;20112;-65
2023/01/23 10:52:00;;;;;;;16.63;10.55;;;3.30;99.90;;;;;;5100518;28;20081;-67
2023/01/23 10:54:29;;;;;;;19.00;10.43;;;3.30;99.90;;;;;;5080984;28;20088;-67
2023/01/23 10:57:28;;;;;;;18.33;10.88;;;3.30;99.90;;;;;;5099864;28;20048;-65
2023/01/23 11:00:00;;;;;;;15.68;9.63;;;3.30;99.90;;;;;;5100712;28;20512;-66
2023/01/23 11:02:27;;;;;;;16.48;10.13;;;3.30;99.90;;;;;;5087637;28;20039;-68
2023/01/23 11:04:53;;;;;;;16.02;10.80;;;3.30;99.90;;;;;;5103545;28;20067;-66
2023/01/23 11:07:28;;;;;;;14.02;9.23;;;3.30;99.90;;;;;;5092913;28;20118;-66
2023/01/23 11:09:57;;;;;;;14.55;10.50;;;3.40;99.90;;;;;;5102386;28;20412;-66
2023/01/23 11:12:44;;;;;;;17.02;11.20;;;3.40;99.90;;;;;;5078505;28;20040;-70
2023/01/23 11:15:10;;;;;;;17.60;10.90;;;3.40;99.90;;;;;;5072822;28;20440;-69
2023/01/23 11:17:37;;;;;;;18.20;10.52;;;3.40;99.90;;;;;;5104411;28;20108;-67
2023/01/23 11:20:20;;;;;;;13.43;10.00;;;3.50;99.90;;;;;;5081331;28;20054;-68
2023/01/23 11:22:51;;;;;;;14.82;9.90;;;3.50;99.90;;;;;;5076586;28;20055;-67
2023/01/23 11:25:30;;;;;;;15.50;10.75;;;3.50;99.90;;;;;;5084517;28;20047;-67
2023/01/23 11:28:29;;;;;;;13.63;9.80;;;3.50;99.90;;;;;;5105138;28;20052;-67
2023/01/23 11:31:04;;;;;;;14.98;10.80;;;3.60;99.90;;;;;;5095127;28;20059;-70
2023/01/23 11:33:33;;;;;;;;;;;3.60;99.90;;;;;;5105012;28;20047;-67
2023/01/23 11:36:01;;;;;;;17.13;10.52;;;3.60;99.90;;;;;;5092246;28;19920;-67
2023/01/23 11:38:35;;;;;;;14.70;11.02;;;3.60;99.90;;;;;;5110073;28;20039;-72
2023/01/23 11:41:03;;;;;;;14.05;10.45;;;3.60;99.90;;;;;;5102560;28;20402;-67
2023/01/23 11:43:28;;;;;;;15.20;9.98;;;3.80;99.90;;;;;;5107200;28;20106;-66
2023/01/23 11:46:15;;;;;;;15.07;9.88;;;3.70;99.90;;;;;;5082893;28;20071;-67
2023/01/23 11:48:51;;;;;;;15.20;9.85;;;3.80;99.90;;;;;;5066001;28;20113;-67
2023/01/23 11:51:36;;;;;;;14.68;9.85;;;3.80;99.90;;;;;;5092891;28;20059;-66
2023/01/23 11:54:11;;;;;;;14.35;9.35;;;3.80;99.90;;;;;;5082168;28;20070;-67
2023/01/23 11:57:01;;;;;;;14.93;9.82;;;3.90;99.90;;;;;;5097732;28;20406;-68
2023/01/23 11:59:42;;;;;;;12.05;8.95;;;3.90;99.90;;;;;;5101217;28;20043;-73
2023/01/23 12:02:38;;;;;;;12.65;9.10;;;3.90;99.90;;;;;;5092654;28;20111;-71
2023/01/23 12:05:33;;;;;;;12.45;9.20;;;3.90;99.90;;;;;;5084336;28;20496;-66
2023/01/23 12:08:19;;;;;;;12.68;8.60;;;3.90;99.90;;;;;;5078366;28;20062;-70
2023/01/23 12:11:10;;;;;;;13.50;10.10;;;3.90;99.90;;;;;;5087761;28;20048;-69
2023/01/23 12:13:43;;;;;;;13.55;9.95;;;3.90;99.90;;;;;;5104174;28;20048;-67
2023/01/23 12:16:29;;;;;;;14.15;9.35;;;3.90;99.90;;;;;;5068640;28;20040;-68
2023/01/23 12:19:09;;;;;;;13.18;8.75;;;3.90;99.90;;;;;;5108240;28;20046;-69
2023/01/23 12:22:06;;;;;;;12.65;8.45;;;3.90;99.90;;;;;;5114080;28;20039;-67
2023/01/23 12:24:40;;;;;;;11.70;8.30;;;3.90;99.90;;;;;;5090379;28;20090;-71
2023/01/23 12:27:21;;;;;;;11.48;8.85;;;3.90;99.90;;;;;;5105533;28;20064;-68
2023/01/23 12:30:03;;;;;;;12.02;8.57;;;4.00;99.90;;;;;;5090974;28;20040;-67
2023/01/23 12:32:44;;;;;;;15.07;9.68;;;4.00;99.90;;;;;;5113165;28;20083;-69
2023/01/23 12:35:41;;;;;;;14.65;10.00;;;4.00;99.90;;;;;;5096141;28;20447;-69
2023/01/23 12:38:14;;;;;;;12.75;8.10;;;4.00;99.90;;;;;;5086596;28;20056;-70
2023/01/23 12:40:52;;;;;;;15.07;8.85;;;4.00;99.90;;;;;;5072585;28;20047;-68
2023/01/23 12:43:30;;;;;;;10.68;8.07;;;4.00;99.90;;;;;;5114166;28;20047;-68
2023/01/23 12:46:04;;;;;;;10.50;7.93;;;4.00;99.90;;;;;;5105658;28;20374;-68
2023/01/23 12:48:38;;;;;;;9.73;7.38;;;4.00;99.90;;;;;;5104989;28;20040;-69
2023/01/23 12:51:41;;;;;;;12.48;8.10;;;4.00;99.90;;;;;;5083073;28;20409;-69
2023/01/23 12:54:15;;;;;;;11.43;8.35;;;4.00;99.90;;;;;;5028225;28;20146;-72
2023/01/23 12:56:43;;;;;;;14.43;8.57;;;3.90;99.90;;;;;;5101378;28;20053;-72
2023/01/23 12:59:18;;;;;;;12.07;8.68;;;4.00;99.90;;;;;;5082136;28;20062;-69
2023/01/23 13:01:47;;;;;;;;;;;4.00;99.90;;;;;;5103580;28;20089;-67
2023/01/23 13:04:44;;;;;;;11.70;8.52;;;3.90;99.90;;;;;;5100178;28;19930;-66
2023/01/23 13:07:12;;;;;;;11.90;8.68;;;3.90;99.90;;;;;;5108511;28;20082;-67
2023/01/23 13:09:55;;;;;;;13.45;9.27;;;3.90;99.90;;;;;;5103585;28;20043;-72
2023/01/23 13:12:25;;;;;;;13.52;9.15;;;3.90;99.90;;;;;;5105196;28;20047;-68